sensor_id;sensor_type;location;lat;lon;timestamp;P1;durP1;ratioP1;P2;durP2;ratioP2
74753;SDS011;63271;53.340;-6.260;2023-12-14T07:02:01;3.78;;;1.20;;
74753;SDS011;63271;53.340;-6.260;2023-12-14T07:04:26;5.75;;;1.35;;
74753;SDS011;63271;53.340;-6.260;2023-12-14T07:06:57;7.03;;;1.80;;
74753;SDS011;63271;53.340;-6.260;2023-12-14T07:09:23;6.03;;;1.80;;
74753;SDS011;63271;53.340;-6.260;2023-12-14T07:11:50;3.95;;;1.10;;
74753;SDS011;63271;53.340;-6.260;2023-12-14T07:14:20;5.88;;;1.55;;
74753;SDS011;63271;53.340;-6.260;2023-12-14T07:16:45;5.03;;;1.40;;
74753;SDS011;63271;53.340;-6.260;2023-12-14T07:19:11;4.85;;;1.33;;
74753;SDS011;63271;53.340;-6.260;2023-12-14T07:21:36;6.00;;;1.40;;
74753;SDS011;63271;53.340;-6.260;2023-12-14T07:24:06;3.80;;;1.20;;
74753;SDS011;63271;53.340;-6.260;2023-12-14T07:26:32;6.82;;;1.50;;
74753;SDS011;63271;53.340;-6.260;2023-12-14T07:29:00;8.75;;;1.80;;
74753;SDS011;63271;53.340;-6.260;2023-12-14T07:31:25;8.85;;;1.80;;
74753;SDS011;63271;53.340;-6.260;2023-12-14T07:33:53;6.43;;;1.50;;
74753;SDS011;63271;53.340;-6.260;2023-12-14T07:36:18;6.65;;;1.67;;
74753;SDS011;63271;53.340;-6.260;2023-12-14T07:38:49;5.28;;;1.42;;
74753;SDS011;63271;53.340;-6.260;2023-12-14T07:41:17;4.85;;;1.52;;
74753;SDS011;63271;53.340;-6.260;2023-12-14T07:43:53;4.35;;;1.38;;
74753;SDS011;63271;53.340;-6.260;2023-12-14T07:46:21;9.15;;;2.08;;
74753;SDS011;63271;53.340;-6.260;2023-12-14T07:48:47;4.43;;;1.48;;
74753;SDS011;63271;53.340;-6.260;2023-12-14T07:51:12;8.63;;;2.15;;
74753;SDS011;63271;53.340;-6.260;2023-12-14T07:53:38;9.10;;;2.10;;
74753;SDS011;63271;53.340;-6.260;2023-12-14T07:56:08;8.80;;;1.85;;
74753;SDS011;63271;53.340;-6.260;2023-12-14T07:58:41;9.27;;;1.85;;
74753;SDS011;63271;53.340;-6.260;2023-12-14T08:01:08;10.65;;;2.20;;
74753;SDS011;63271;53.340;-6.260;2023-12-14T08:03:35;12.82;;;1.95;;
74753;SDS011;63271;53.340;-6.260;2023-12-14T08:06:03;8.10;;;2.17;;
74753;SDS011;63271;53.340;-6.260;2023-12-14T08:08:31;9.30;;;2.10;;
74753;SDS011;63271;53.340;-6.260;2023-12-14T08:10:56;9.75;;;2.20;;
74753;SDS011;63271;53.340;-6.260;2023-12-14T08:13:22;9.60;;;2.28;;
74753;SDS011;63271;53.340;-6.260;2023-12-14T08:15:50;13.55;;;3.00;;
74753;SDS011;63271;53.340;-6.260;2023-12-14T08:18:15;8.55;;;1.85;;
74753;SDS011;63271;53.340;-6.260;2023-12-14T08:20:41;11.13;;;2.42;;
74753;SDS011;63271;53.340;-6.260;2023-12-14T08:23:08;13.27;;;2.72;;
74753;SDS011;63271;53.340;-6.260;2023-12-14T08:25:34;11.20;;;2.35;;
74753;SDS011;63271;53.340;-6.260;2023-12-14T08:27:59;12.43;;;2.67;;
74753;SDS011;63271;53.340;-6.260;2023-12-14T08:30:25;16.20;;;2.88;;
74753;SDS011;63271;53.340;-6.260;2023-12-14T08:32:52;17.58;;;2.55;;
74753;SDS011;63271;53.340;-6.260;2023-12-14T08:35:18;11.65;;;2.58;;
74753;SDS011;63271;53.340;-6.260;2023-12-14T08:37:44;18.52;;;3.47;;
74753;SDS011;63271;53.340;-6.260;2023-12-14T08:40:12;15.27;;;2.85;;
74753;SDS011;63271;53.340;-6.260;2023-12-14T08:42:39;8.73;;;2.65;;
74753;SDS011;63271;53.340;-6.260;2023-12-14T08:45:05;8.30;;;2.10;;
74753;SDS011;63271;53.340;-6.260;2023-12-14T08:47:33;13.15;;;3.30;;
74753;SDS011;63271;53.340;-6.260;2023-12-14T08:49:58;12.43;;;2.50;;
74753;SDS011;63271;53.340;-6.260;2023-12-14T08:52:24;13.98;;;2.45;;
74753;SDS011;63271;53.340;-6.260;2023-12-14T08:54:49;12.45;;;3.28;;
74753;SDS011;63271;53.340;-6.260;2023-12-14T08:57:14;13.57;;;3.60;;
74753;SDS011;63271;53.340;-6.260;2023-12-14T08:59:40;16.33;;;3.20;;
74753;SDS011;63271;53.340;-6.260;2023-12-14T09:02:07;11.18;;;2.88;;
74753;SDS011;63271;53.340;-6.260;2023-12-14T09:04:35;10.30;;;2.70;;
74753;SDS011;63271;53.340;-6.260;2023-12-14T09:07:06;12.13;;;2.80;;
74753;SDS011;63271;53.340;-6.260;2023-12-14T09:09:34;11.15;;;2.50;;
74753;SDS011;63271;53.340;-6.260;2023-12-14T09:11:59;11.13;;;3.03;;
74753;SDS011;63271;53.340;-6.260;2023-12-14T09:14:25;12.07;;;2.50;;
74753;SDS011;63271;53.340;-6.260;2023-12-14T09:16:50;16.90;;;3.10;;
74753;SDS011;63271;53.340;-6.260;2023-12-14T09:19:18;15.98;;;3.30;;
74753;SDS011;63271;53.340;-6.260;2023-12-14T09:21:46;17.05;;;3.80;;
74753;SDS011;63271;53.340;-6.260;2023-12-14T09:24:11;11.98;;;3.35;;
74753;SDS011;63271;53.340;-6.260;2023-12-14T09:26:39;11.65;;;3.03;;
74753;SDS011;63271;53.340;-6.260;2023-12-14T09:29:05;12.43;;;2.97;;
74753;SDS011;63271;53.340;-6.260;2023-12-14T09:31:33;18.35;;;3.92;;
74753;SDS011;63271;53.340;-6.260;2023-12-14T09:33:58;14.25;;;3.17;;
74753;SDS011;63271;53.340;-6.260;2023-12-14T09:36:24;12.10;;;3.22;;
74753;SDS011;63271;53.340;-6.260;2023-12-14T09:38:49;13.40;;;3.08;;
74753;SDS011;63271;53.340;-6.260;2023-12-14T09:41:15;16.15;;;3.30;;
74753;SDS011;63271;53.340;-6.260;2023-12-14T09:43:44;15.82;;;3.20;;
74753;SDS011;63271;53.340;-6.260;2023-12-14T09:46:12;15.35;;;3.22;;
74753;SDS011;63271;53.340;-6.260;2023-12-14T09:48:40;12.93;;;2.97;;
74753;SDS011;63271;53.340;-6.260;2023-12-14T09:51:08;14.25;;;3.30;;
74753;SDS011;63271;53.340;-6.260;2023-12-14T09:53:37;16.33;;;3.63;;
74753;SDS011;63271;53.340;-6.260;2023-12-14T09:56:05;15.18;;;3.22;;
74753;SDS011;63271;53.340;-6.260;2023-12-14T09:58:31;10.75;;;3.58;;
74753;SDS011;63271;53.340;-6.260;2023-12-14T10:00:58;17.55;;;3.38;;
74753;SDS011;63271;53.340;-6.260;2023-12-14T10:03:27;11.38;;;2.80;;
74753;SDS011;63271;53.340;-6.260;2023-12-14T10:05:57;17.77;;;3.50;;
74753;SDS011;63271;53.340;-6.260;2023-12-14T10:08:23;13.95;;;3.15;;
74753;SDS011;63271;53.340;-6.260;2023-12-14T10:10:51;16.30;;;3.80;;
74753;SDS011;63271;53.340;-6.260;2023-12-14T10:13:21;15.88;;;3.60;;
74753;SDS011;63271;53.340;-6.260;2023-12-14T10:16:01;19.90;;;3.45;;
74753;SDS011;63271;53.340;-6.260;2023-12-14T10:18:29;14.75;;;3.22;;
74753;SDS011;63271;53.340;-6.260;2023-12-14T10:20:56;18.92;;;3.50;;
74753;SDS011;63271;53.340;-6.260;2023-12-14T10:23:24;18.20;;;4.28;;
74753;SDS011;63271;53.340;-6.260;2023-12-14T10:25:52;13.90;;;3.53;;
74753;SDS011;63271;53.340;-6.260;2023-12-14T10:30:45;21.60;;;4.23;;
74753;SDS011;63271;53.340;-6.260;2023-12-14T10:33:11;15.95;;;3.83;;
74753;SDS011;63271;53.340;-6.260;2023-12-14T10:35:36;15.65;;;4.00;;
74753;SDS011;63271;53.340;-6.260;2023-12-14T10:38:04;17.67;;;4.35;;
74753;SDS011;63271;53.340;-6.260;2023-12-14T10:43:02;19.10;;;4.72;;
74753;SDS011;63271;53.340;-6.260;2023-12-14T10:45:29;17.65;;;3.97;;
74753;SDS011;63271;53.340;-6.260;2023-12-14T10:47:58;16.52;;;3.60;;
74753;SDS011;63271;53.340;-6.260;2023-12-14T10:50:30;17.35;;;3.63;;
74753;SDS011;63271;53.340;-6.260;2023-12-14T10:52:58;16.92;;;3.88;;
74753;SDS011;63271;53.340;-6.260;2023-12-14T10:57:57;19.38;;;4.07;;
74753;SDS011;63271;53.340;-6.260;2023-12-14T11:00:23;14.23;;;3.60;;
74753;SDS011;63271;53.340;-6.260;2023-12-14T11:02:49;15.63;;;3.88;;
74753;SDS011;63271;53.340;-6.260;2023-12-14T11:05:18;15.75;;;3.40;;
74753;SDS011;63271;53.340;-6.260;2023-12-14T11:08:09;18.50;;;3.78;;
74753;SDS011;63271;53.340;-6.260;2023-12-14T11:10:43;16.92;;;4.30;;
74753;SDS011;63271;53.340;-6.260;2023-12-14T11:13:17;16.30;;;4.25;;
74753;SDS011;63271;53.340;-6.260;2023-12-14T11:15:47;14.10;;;3.92;;
74753;SDS011;63271;53.340;-6.260;2023-12-14T11:18:20;20.55;;;3.80;;
74753;SDS011;63271;53.340;-6.260;2023-12-14T11:23:15;11.43;;;3.55;;
74753;SDS011;63271;53.340;-6.260;2023-12-14T11:25:48;17.90;;;4.10;;
74753;SDS011;63271;53.340;-6.260;2023-12-14T11:28:19;18.83;;;3.95;;
74753;SDS011;63271;53.340;-6.260;2023-12-14T11:30:45;15.02;;;4.25;;
74753;SDS011;63271;53.340;-6.260;2023-12-14T11:33:15;12.80;;;3.58;;
74753;SDS011;63271;53.340;-6.260;2023-12-14T11:35:41;16.70;;;4.32;;
74753;SDS011;63271;53.340;-6.260;2023-12-14T11:38:11;13.88;;;3.55;;
74753;SDS011;63271;53.340;-6.260;2023-12-14T11:40:39;14.77;;;3.70;;
74753;SDS011;63271;53.340;-6.260;2023-12-14T11:43:05;19.17;;;3.92;;
74753;SDS011;63271;53.340;-6.260;2023-12-14T11:45:37;12.88;;;4.32;;
74753;SDS011;63271;53.340;-6.260;2023-12-14T11:48:04;21.98;;;4.43;;
74753;SDS011;63271;53.340;-6.260;2023-12-14T11:50:31;16.17;;;4.10;;
74753;SDS011;63271;53.340;-6.260;2023-12-14T11:52:58;33.55;;;4.93;;
74753;SDS011;63271;53.340;-6.260;2023-12-14T11:55:25;18.95;;;3.97;;
74753;SDS011;63271;53.340;-6.260;2023-12-14T11:57:51;16.42;;;4.15;;
74753;SDS011;63271;53.340;-6.260;2023-12-14T12:00:22;15.27;;;4.32;;
74753;SDS011;63271;53.340;-6.260;2023-12-14T12:03:09;19.90;;;4.28;;
74753;SDS011;63271;53.340;-6.260;2023-12-14T12:05:43;23.85;;;4.32;;
74753;SDS011;63271;53.340;-6.260;2023-12-14T12:08:11;16.17;;;4.20;;
74753;SDS011;63271;53.340;-6.260;2023-12-14T12:10:38;15.18;;;3.90;;
74753;SDS011;63271;53.340;-6.260;2023-12-14T12:13:09;17.30;;;4.68;;
74753;SDS011;63271;53.340;-6.260;2023-12-14T12:15:37;15.35;;;4.32;;
74753;SDS011;63271;53.340;-6.260;2023-12-14T12:18:08;18.05;;;4.35;;
74753;SDS011;63271;53.340;-6.260;2023-12-14T12:20:37;18.55;;;4.68;;
74753;SDS011;63271;53.340;-6.260;2023-12-14T12:23:07;19.08;;;4.60;;
74753;SDS011;63271;53.340;-6.260;2023-12-14T12:25:33;21.08;;;4.45;;
74753;SDS011;63271;53.340;-6.260;2023-12-14T12:27:59;15.75;;;4.55;;
74753;SDS011;63271;53.340;-6.260;2023-12-14T12:30:26;18.83;;;4.13;;
74753;SDS011;63271;53.340;-6.260;2023-12-14T12:32:54;13.93;;;4.10;;
74753;SDS011;63271;53.340;-6.260;2023-12-14T12:35:23;18.10;;;4.22;;
74753;SDS011;63271;53.340;-6.260;2023-12-14T12:37:50;19.38;;;5.05;;
74753;SDS011;63271;53.340;-6.260;2023-12-14T12:40:22;21.38;;;4.57;;
74753;SDS011;63271;53.340;-6.260;2023-12-14T12:42:50;17.52;;;4.30;;
74753;SDS011;63271;53.340;-6.260;2023-12-14T12:45:18;19.05;;;4.97;;
74753;SDS011;63271;53.340;-6.260;2023-12-14T12:47:49;17.58;;;4.93;;
74753;SDS011;63271;53.340;-6.260;2023-12-14T12:50:15;28.40;;;5.45;;
74753;SDS011;63271;53.340;-6.260;2023-12-14T12:52:40;18.02;;;5.22;;
74753;SDS011;63271;53.340;-6.260;2023-12-14T12:55:07;18.02;;;4.07;;
74753;SDS011;63271;53.340;-6.260;2023-12-14T12:57:36;14.57;;;4.55;;
74753;SDS011;63271;53.340;-6.260;2023-12-14T13:00:05;24.88;;;4.97;;
74753;SDS011;63271;53.340;-6.260;2023-12-14T13:02:38;22.38;;;4.65;;
74753;SDS011;63271;53.340;-6.260;2023-12-14T13:05:05;18.52;;;5.20;;
74753;SDS011;63271;53.340;-6.260;2023-12-14T13:07:37;16.40;;;4.65;;
74753;SDS011;63271;53.340;-6.260;2023-12-14T13:10:05;14.73;;;4.45;;
74753;SDS011;63271;53.340;-6.260;2023-12-14T13:12:36;17.88;;;4.68;;
74753;SDS011;63271;53.340;-6.260;2023-12-14T13:15:04;20.90;;;4.35;;
74753;SDS011;63271;53.340;-6.260;2023-12-14T13:17:30;14.48;;;4.50;;
74753;SDS011;63271;53.340;-6.260;2023-12-14T13:19:55;18.35;;;5.30;;
74753;SDS011;63271;53.340;-6.260;2023-12-14T13:22:23;16.80;;;4.97;;
74753;SDS011;63271;53.340;-6.260;2023-12-14T13:24:51;17.73;;;4.97;;
74753;SDS011;63271;53.340;-6.260;2023-12-14T13:27:16;16.95;;;4.55;;
74753;SDS011;63271;53.340;-6.260;2023-12-14T13:29:44;18.20;;;5.50;;
74753;SDS011;63271;53.340;-6.260;2023-12-14T13:32:10;17.00;;;4.07;;
74753;SDS011;63271;53.340;-6.260;2023-12-14T13:34:35;17.15;;;5.10;;
74753;SDS011;63271;53.340;-6.260;2023-12-14T13:37:04;13.98;;;4.32;;
74753;SDS011;63271;53.340;-6.260;2023-12-14T13:39:34;16.70;;;4.40;;
74753;SDS011;63271;53.340;-6.260;2023-12-14T13:42:03;15.13;;;4.50;;
74753;SDS011;63271;53.340;-6.260;2023-12-14T13:44:32;19.13;;;5.60;;
74753;SDS011;63271;53.340;-6.260;2023-12-14T13:47:00;18.75;;;4.90;;
74753;SDS011;63271;53.340;-6.260;2023-12-14T13:49:26;18.77;;;5.07;;
74753;SDS011;63271;53.340;-6.260;2023-12-14T13:51:54;17.05;;;5.55;;
74753;SDS011;63271;53.340;-6.260;2023-12-14T13:54:19;18.52;;;5.38;;
74753;SDS011;63271;53.340;-6.260;2023-12-14T13:56:45;18.20;;;4.70;;
74753;SDS011;63271;53.340;-6.260;2023-12-14T13:59:10;17.45;;;4.65;;
74753;SDS011;63271;53.340;-6.260;2023-12-14T14:01:38;18.20;;;4.55;;
74753;SDS011;63271;53.340;-6.260;2023-12-14T14:04:03;17.00;;;4.80;;
74753;SDS011;63271;53.340;-6.260;2023-12-14T14:06:32;18.83;;;4.63;;
74753;SDS011;63271;53.340;-6.260;2023-12-14T14:08:57;17.00;;;4.43;;
74753;SDS011;63271;53.340;-6.260;2023-12-14T14:11:25;13.48;;;4.03;;
74753;SDS011;63271;53.340;-6.260;2023-12-14T14:13:55;20.65;;;5.20;;
74753;SDS011;63271;53.340;-6.260;2023-12-14T14:16:23;18.40;;;4.97;;
74753;SDS011;63271;53.340;-6.260;2023-12-14T14:18:48;19.20;;;5.82;;
74753;SDS011;63271;53.340;-6.260;2023-12-14T14:21:13;17.27;;;4.55;;
74753;SDS011;63271;53.340;-6.260;2023-12-14T14:23:39;22.55;;;5.22;;
74753;SDS011;63271;53.340;-6.260;2023-12-14T14:26:07;20.35;;;4.85;;
74753;SDS011;63271;53.340;-6.260;2023-12-14T14:28:33;17.13;;;4.97;;
74753;SDS011;63271;53.340;-6.260;2023-12-14T14:31:03;20.58;;;5.55;;
74753;SDS011;63271;53.340;-6.260;2023-12-14T14:33:29;19.30;;;4.97;;
74753;SDS011;63271;53.340;-6.260;2023-12-14T14:35:56;18.15;;;5.25;;
74753;SDS011;63271;53.340;-6.260;2023-12-14T14:38:30;22.42;;;5.47;;
74753;SDS011;63271;53.340;-6.260;2023-12-14T14:40:57;20.23;;;5.35;;
74753;SDS011;63271;53.340;-6.260;2023-12-14T14:43:23;19.92;;;5.10;;
74753;SDS011;63271;53.340;-6.260;2023-12-14T14:45:49;25.10;;;6.25;;
74753;SDS011;63271;53.340;-6.260;2023-12-14T14:48:17;17.83;;;4.85;;
74753;SDS011;63271;53.340;-6.260;2023-12-14T14:50:44;18.70;;;5.35;;
74753;SDS011;63271;53.340;-6.260;2023-12-14T14:53:10;19.98;;;5.22;;
74753;SDS011;63271;53.340;-6.260;2023-12-14T14:55:37;20.85;;;5.15;;
74753;SDS011;63271;53.340;-6.260;2023-12-14T14:58:03;23.70;;;5.30;;
74753;SDS011;63271;53.340;-6.260;2023-12-14T15:00:28;22.58;;;4.82;;
74753;SDS011;63271;53.340;-6.260;2023-12-14T15:02:55;19.92;;;5.22;;
74753;SDS011;63271;53.340;-6.260;2023-12-14T15:05:22;17.05;;;4.80;;
74753;SDS011;63271;53.340;-6.260;2023-12-14T15:07:48;17.05;;;4.93;;
74753;SDS011;63271;53.340;-6.260;2023-12-14T15:10:15;15.73;;;4.45;;
74753;SDS011;63271;53.340;-6.260;2023-12-14T15:12:43;19.90;;;4.97;;
74753;SDS011;63271;53.340;-6.260;2023-12-14T15:15:13;16.50;;;4.80;;
74753;SDS011;63271;53.340;-6.260;2023-12-14T15:17:41;16.13;;;5.13;;
74753;SDS011;63271;53.340;-6.260;2023-12-14T15:20:09;20.30;;;5.15;;
74753;SDS011;63271;53.340;-6.260;2023-12-14T15:22:38;18.48;;;5.95;;
74753;SDS011;63271;53.340;-6.260;2023-12-14T15:25:06;18.67;;;5.40;;
74753;SDS011;63271;53.340;-6.260;2023-12-14T15:27:34;17.38;;;4.60;;
74753;SDS011;63271;53.340;-6.260;2023-12-14T15:30:00;25.15;;;6.10;;
74753;SDS011;63271;53.340;-6.260;2023-12-14T15:32:25;18.73;;;5.45;;
74753;SDS011;63271;53.340;-6.260;2023-12-14T15:34:53;20.00;;;4.82;;
74753;SDS011;63271;53.340;-6.260;2023-12-14T15:37:22;20.33;;;5.85;;
74753;SDS011;63271;53.340;-6.260;2023-12-14T15:39:47;20.08;;;5.10;;
74753;SDS011;63271;53.340;-6.260;2023-12-14T15:42:17;23.33;;;5.30;;
74753;SDS011;63271;53.340;-6.260;2023-12-14T15:44:43;18.25;;;5.18;;
74753;SDS011;63271;53.340;-6.260;2023-12-14T15:47:10;19.40;;;5.05;;
74753;SDS011;63271;53.340;-6.260;2023-12-14T15:49:36;22.90;;;5.75;;
74753;SDS011;63271;53.340;-6.260;2023-12-14T15:52:04;19.08;;;4.80;;
74753;SDS011;63271;53.340;-6.260;2023-12-14T15:54:30;16.20;;;4.35;;
74753;SDS011;63271;53.340;-6.260;2023-12-14T15:56:55;16.88;;;4.88;;
74753;SDS011;63271;53.340;-6.260;2023-12-14T15:59:21;18.98;;;5.28;;
74753;SDS011;63271;53.340;-6.260;2023-12-14T16:01:46;19.23;;;5.15;;
74753;SDS011;63271;53.340;-6.260;2023-12-14T16:04:12;19.02;;;4.82;;
74753;SDS011;63271;53.340;-6.260;2023-12-14T16:06:39;18.17;;;4.93;;
74753;SDS011;63271;53.340;-6.260;2023-12-14T16:09:08;14.55;;;4.40;;
74753;SDS011;63271;53.340;-6.260;2023-12-14T16:11:33;17.83;;;5.15;;
74753;SDS011;63271;53.340;-6.260;2023-12-14T16:13:59;20.80;;;4.78;;
74753;SDS011;63271;53.340;-6.260;2023-12-14T16:16:24;23.27;;;5.57;;
74753;SDS011;63271;53.340;-6.260;2023-12-14T16:18:49;15.65;;;4.65;;
74753;SDS011;63271;53.340;-6.260;2023-12-14T16:21:19;17.55;;;5.63;;
74753;SDS011;63271;53.340;-6.260;2023-12-14T16:23:47;16.95;;;4.85;;
74753;SDS011;63271;53.340;-6.260;2023-12-14T16:26:12;18.13;;;4.75;;
74753;SDS011;63271;53.340;-6.260;2023-12-14T16:28:40;17.17;;;5.32;;
74753;SDS011;63271;53.340;-6.260;2023-12-14T16:31:06;15.88;;;5.03;;
74753;SDS011;63271;53.340;-6.260;2023-12-14T16:33:32;18.20;;;5.30;;
74753;SDS011;63271;53.340;-6.260;2023-12-14T16:36:00;15.30;;;4.88;;
74753;SDS011;63271;53.340;-6.260;2023-12-14T16:38:26;14.68;;;4.38;;
74753;SDS011;63271;53.340;-6.260;2023-12-14T16:40:51;16.25;;;4.50;;
74753;SDS011;63271;53.340;-6.260;2023-12-14T16:43:16;19.80;;;5.45;;
74753;SDS011;63271;53.340;-6.260;2023-12-14T16:45:44;23.05;;;5.00;;
74753;SDS011;63271;53.340;-6.260;2023-12-14T16:48:16;16.70;;;4.90;;
74753;SDS011;63271;53.340;-6.260;2023-12-14T16:50:44;17.10;;;5.18;;
74753;SDS011;63271;53.340;-6.260;2023-12-14T16:53:12;15.13;;;4.05;;
74753;SDS011;63271;53.340;-6.260;2023-12-14T16:55:37;14.07;;;4.63;;
74753;SDS011;63271;53.340;-6.260;2023-12-14T16:58:07;17.08;;;5.07;;
74753;SDS011;63271;53.340;-6.260;2023-12-14T17:00:32;11.85;;;3.90;;
74753;SDS011;63271;53.340;-6.260;2023-12-14T17:03:00;14.57;;;4.55;;
74753;SDS011;63271;53.340;-6.260;2023-12-14T17:05:25;15.05;;;4.38;;
74753;SDS011;63271;53.340;-6.260;2023-12-14T17:07:53;16.27;;;4.10;;
74753;SDS011;63271;53.340;-6.260;2023-12-14T17:10:18;16.77;;;4.75;;
74753;SDS011;63271;53.340;-6.260;2023-12-14T17:12:44;16.00;;;4.28;;
74753;SDS011;63271;53.340;-6.260;2023-12-14T17:15:09;17.33;;;4.60;;
74753;SDS011;63271;53.340;-6.260;2023-12-14T17:17:37;12.05;;;4.07;;
74753;SDS011;63271;53.340;-6.260;2023-12-14T17:20:03;24.48;;;5.22;;
74753;SDS011;63271;53.340;-6.260;2023-12-14T17:22:29;18.85;;;5.53;;
74753;SDS011;63271;53.340;-6.260;2023-12-14T17:24:58;17.90;;;4.75;;
74753;SDS011;63271;53.340;-6.260;2023-12-14T17:27:26;13.43;;;5.47;;
74753;SDS011;63271;53.340;-6.260;2023-12-14T17:29:51;14.98;;;4.32;;
74753;SDS011;63271;53.340;-6.260;2023-12-14T17:32:19;15.88;;;3.88;;
74753;SDS011;63271;53.340;-6.260;2023-12-14T17:34:45;14.65;;;4.70;;
74753;SDS011;63271;53.340;-6.260;2023-12-14T17:37:11;15.50;;;4.25;;
74753;SDS011;63271;53.340;-6.260;2023-12-14T17:39:37;18.30;;;4.93;;
74753;SDS011;63271;53.340;-6.260;2023-12-14T17:42:02;18.27;;;4.25;;
74753;SDS011;63271;53.340;-6.260;2023-12-14T17:44:28;13.85;;;4.80;;
74753;SDS011;63271;53.340;-6.260;2023-12-14T17:46:53;15.63;;;4.75;;
74753;SDS011;63271;53.340;-6.260;2023-12-14T17:49:18;17.10;;;5.15;;
74753;SDS011;63271;53.340;-6.260;2023-12-14T17:51:44;17.58;;;4.85;;
74753;SDS011;63271;53.340;-6.260;2023-12-14T17:54:09;18.95;;;5.00;;
74753;SDS011;63271;53.340;-6.260;2023-12-14T17:56:37;19.35;;;4.72;;
74753;SDS011;63271;53.340;-6.260;2023-12-14T17:59:05;15.00;;;5.25;;
74753;SDS011;63271;53.340;-6.260;2023-12-14T18:01:31;15.23;;;4.65;;
74753;SDS011;63271;53.340;-6.260;2023-12-14T18:03:58;17.52;;;5.05;;
74753;SDS011;63271;53.340;-6.260;2023-12-14T18:06:26;12.48;;;4.10;;
74753;SDS011;63271;53.340;-6.260;2023-12-14T18:08:52;17.05;;;4.82;;
74753;SDS011;63271;53.340;-6.260;2023-12-14T18:11:23;15.23;;;4.40;;
74753;SDS011;63271;53.340;-6.260;2023-12-14T18:13:51;15.65;;;5.38;;
74753;SDS011;63271;53.340;-6.260;2023-12-14T18:16:16;13.50;;;4.50;;
74753;SDS011;63271;53.340;-6.260;2023-12-14T18:18:46;15.13;;;4.68;;
74753;SDS011;63271;53.340;-6.260;2023-12-14T18:21:14;20.58;;;5.45;;
74753;SDS011;63271;53.340;-6.260;2023-12-14T18:23:40;16.77;;;4.65;;
74753;SDS011;63271;53.340;-6.260;2023-12-14T18:26:05;16.40;;;4.35;;
74753;SDS011;63271;53.340;-6.260;2023-12-14T18:28:31;15.73;;;4.55;;
74753;SDS011;63271;53.340;-6.260;2023-12-14T18:30:56;14.60;;;4.50;;
74753;SDS011;63271;53.340;-6.260;2023-12-14T18:33:22;18.27;;;5.13;;
74753;SDS011;63271;53.340;-6.260;2023-12-14T18:35:49;20.40;;;5.63;;
74753;SDS011;63271;53.340;-6.260;2023-12-14T18:38:15;17.15;;;5.00;;
74753;SDS011;63271;53.340;-6.260;2023-12-14T18:40:43;13.88;;;5.07;;
74753;SDS011;63271;53.340;-6.260;2023-12-14T18:43:13;13.85;;;4.60;;
74753;SDS011;63271;53.340;-6.260;2023-12-14T18:45:39;18.40;;;5.25;;
74753;SDS011;63271;53.340;-6.260;2023-12-14T18:48:08;14.95;;;4.57;;
74753;SDS011;63271;53.340;-6.260;2023-12-14T18:50:33;17.70;;;5.13;;
74753;SDS011;63271;53.340;-6.260;2023-12-14T18:53:02;14.52;;;4.22;;
74753;SDS011;63271;53.340;-6.260;2023-12-14T18:55:29;14.25;;;5.22;;
74753;SDS011;63271;53.340;-6.260;2023-12-14T18:57:56;15.48;;;4.75;;
74753;SDS011;63271;53.340;-6.260;2023-12-14T19:00:24;17.23;;;5.00;;
74753;SDS011;63271;53.340;-6.260;2023-12-14T19:02:52;17.50;;;4.93;;
74753;SDS011;63271;53.340;-6.260;2023-12-14T19:05:20;15.77;;;4.82;;
74753;SDS011;63271;53.340;-6.260;2023-12-14T19:07:52;14.85;;;4.70;;
74753;SDS011;63271;53.340;-6.260;2023-12-14T19:10:19;16.60;;;4.88;;
74753;SDS011;63271;53.340;-6.260;2023-12-14T19:12:47;14.52;;;4.82;;
74753;SDS011;63271;53.340;-6.260;2023-12-14T19:15:15;14.88;;;4.57;;
74753;SDS011;63271;53.340;-6.260;2023-12-14T19:17:43;14.73;;;4.45;;
74753;SDS011;63271;53.340;-6.260;2023-12-14T19:20:09;14.93;;;4.68;;
74753;SDS011;63271;53.340;-6.260;2023-12-14T19:22:38;10.00;;;3.58;;
74753;SDS011;63271;53.340;-6.260;2023-12-14T19:25:07;18.65;;;4.40;;
74753;SDS011;63271;53.340;-6.260;2023-12-14T19:27:36;18.13;;;4.97;;
74753;SDS011;63271;53.340;-6.260;2023-12-14T19:30:03;17.65;;;4.45;;
74753;SDS011;63271;53.340;-6.260;2023-12-14T19:32:31;16.38;;;4.68;;
74753;SDS011;63271;53.340;-6.260;2023-12-14T19:35:01;14.68;;;4.47;;
74753;SDS011;63271;53.340;-6.260;2023-12-14T19:37:29;13.80;;;4.35;;
74753;SDS011;63271;53.340;-6.260;2023-12-14T19:39:56;14.35;;;4.10;;
74753;SDS011;63271;53.340;-6.260;2023-12-14T19:42:22;11.77;;;4.38;;
74753;SDS011;63271;53.340;-6.260;2023-12-14T19:44:47;16.38;;;5.22;;
74753;SDS011;63271;53.340;-6.260;2023-12-14T19:47:13;15.55;;;4.55;;
74753;SDS011;63271;53.340;-6.260;2023-12-14T19:49:38;18.33;;;5.40;;
74753;SDS011;63271;53.340;-6.260;2023-12-14T19:52:04;18.33;;;4.82;;
74753;SDS011;63271;53.340;-6.260;2023-12-14T19:54:29;18.15;;;4.53;;
74753;SDS011;63271;53.340;-6.260;2023-12-14T19:56:55;15.68;;;4.70;;
74753;SDS011;63271;53.340;-6.260;2023-12-14T19:59:20;17.70;;;4.57;;
